createdAt,value
2023-01-19T00:00:34.989Z,16.27
2023-01-19T00:03:05.106Z,25.48
2023-01-19T00:05:33.884Z,24.75
2023-01-19T00:08:14.800Z,16.73
2023-01-19T00:10:47.064Z,19.13
2023-01-19T00:13:15.322Z,24.42
2023-01-19T00:15:49.249Z,23.38
2023-01-19T00:18:15.980Z,19.60
2023-01-19T00:20:45.556Z,21.77
2023-01-19T00:23:13.187Z,19.42
2023-01-19T00:25:42.861Z,24.60
2023-01-19T00:28:15.349Z,19.50
2023-01-19T00:30:42.833Z,21.25
2023-01-19T00:33:10.917Z,26.75
2023-01-19T00:35:37.692Z,21.50
2023-01-19T00:38:04.393Z,23.23
2023-01-19T00:40:31.069Z,23.83
2023-01-19T00:42:59.000Z,23.20
2023-01-19T00:45:26.143Z,25.88
2023-01-19T00:47:57.361Z,20.63
2023-01-19T00:50:28.782Z,17.85
2023-01-19T00:52:57.085Z,21.60
2023-01-19T00:55:24.367Z,16.30
2023-01-19T00:57:51.661Z,23.48
2023-01-19T01:00:22.317Z,32.50
2023-01-19T01:02:50.861Z,32.03
2023-01-19T01:05:18.653Z,22.63
2023-01-19T01:07:45.982Z,18.55
2023-01-19T01:10:19.040Z,36.83
2023-01-19T01:13:20.554Z,25.77
2023-01-19T01:15:33.292Z,30.17
2023-01-19T01:17:59.959Z,21.08
2023-01-19T01:20:37.858Z,19.42
2023-01-19T01:23:04.753Z,17.38
2023-01-19T01:25:34.110Z,30.83
2023-01-19T01:28:00.885Z,24.80
2023-01-19T01:30:27.619Z,23.88
2023-01-19T01:32:54.886Z,23.88
2023-01-19T01:35:21.597Z,14.40
2023-01-19T01:37:48.259Z,26.17
2023-01-19T01:40:17.731Z,29.83
2023-01-19T01:42:45.805Z,26.60
2023-01-19T01:45:35.163Z,34.88
2023-01-19T01:48:10.069Z,23.63
2023-01-19T01:51:02.089Z,22.60
2023-01-19T01:53:30.909Z,22.58
2023-01-19T01:55:59.928Z,24.73
2023-01-19T01:58:27.170Z,26.30
2023-01-19T02:01:13.734Z,24.48
2023-01-19T02:03:40.656Z,32.33
2023-01-19T02:06:08.392Z,19.40
2023-01-19T02:09:03.796Z,18.23
2023-01-19T02:11:50.626Z,24.92
2023-01-19T02:14:18.997Z,19.08
2023-01-19T02:16:46.728Z,28.48
2023-01-19T02:19:18.374Z,23.80
2023-01-19T02:21:57.487Z,23.45
2023-01-19T02:24:24.990Z,22.63
2023-01-19T02:26:52.123Z,28.75
2023-01-19T02:29:20.997Z,23.65
2023-01-19T02:31:48.001Z,24.50
2023-01-19T02:34:20.659Z,21.90
2023-01-19T02:37:06.688Z,19.80
2023-01-19T02:39:43.024Z,22.17
2023-01-19T02:42:15.250Z,24.00
2023-01-19T02:44:46.423Z,26.55
2023-01-19T02:47:13.898Z,27.77
2023-01-19T02:49:40.788Z,33.08
2023-01-19T02:52:15.317Z,27.55
2023-01-19T02:54:51.069Z,24.90
2023-01-19T02:57:27.409Z,20.50
2023-01-19T03:00:19.807Z,29.05
2023-01-19T03:03:06.085Z,24.48
2023-01-19T03:05:54.394Z,19.00
2023-01-19T03:08:33.211Z,24.58
2023-01-19T03:11:08.229Z,23.40
2023-01-19T03:13:52.084Z,19.13
2023-01-19T03:16:33.068Z,28.60
2023-01-19T03:19:17.827Z,28.00
2023-01-19T03:21:48.633Z,22.55
2023-01-19T03:24:18.127Z,26.52
2023-01-19T03:26:50.084Z,23.42
2023-01-19T03:29:19.816Z,21.45
2023-01-19T03:31:49.950Z,22.52
2023-01-19T03:34:22.051Z,23.80
2023-01-19T03:36:55.690Z,19.17
2023-01-19T03:39:24.679Z,16.30
2023-01-19T03:41:56.654Z,19.45
2023-01-19T03:44:26.373Z,24.27
2023-01-19T03:46:53.609Z,22.38
2023-01-19T03:49:20.366Z,29.17
2023-01-19T03:51:47.338Z,31.90
2023-01-19T03:54:14.090Z,26.33
2023-01-19T03:56:40.793Z,26.35
2023-01-19T03:59:07.514Z,21.55
2023-01-19T04:01:34.371Z,27.77
2023-01-19T04:04:01.132Z,28.05
2023-01-19T04:06:28.335Z,29.52
2023-01-19T04:08:55.098Z,22.52
2023-01-19T04:11:21.801Z,26.13
2023-01-19T04:13:48.732Z,26.88
2023-01-19T04:16:20.044Z,33.67
2023-01-19T04:18:47.443Z,28.92
2023-01-19T04:21:14.633Z,24.48
2023-01-19T04:23:41.394Z,27.98
2023-01-19T04:26:08.813Z,31.48
2023-01-19T04:28:37.236Z,28.90
2023-01-19T04:31:05.120Z,35.03
2023-01-19T04:33:32.502Z,33.83
2023-01-19T04:35:59.181Z,36.67
2023-01-19T04:38:26.767Z,26.10
2023-01-19T04:40:54.374Z,15.65
2023-01-19T04:43:22.636Z,23.33
2023-01-19T04:45:49.751Z,20.35
2023-01-19T04:48:18.482Z,31.85
2023-01-19T04:50:45.758Z,28.85
2023-01-19T04:53:13.886Z,27.45
2023-01-19T04:55:40.751Z,25.52
2023-01-19T04:58:09.711Z,19.63
2023-01-19T05:00:37.548Z,21.35
2023-01-19T05:03:05.748Z,32.60
2023-01-19T05:05:33.339Z,25.45
2023-01-19T05:08:00.658Z,23.83
2023-01-19T05:10:27.380Z,24.05
2023-01-19T05:12:54.041Z,23.30
2023-01-19T05:15:21.963Z,27.95
2023-01-19T05:17:48.612Z,30.63
2023-01-19T05:20:16.543Z,22.70
2023-01-19T05:22:48.762Z,26.42
2023-01-19T05:25:15.458Z,26.80
2023-01-19T05:27:42.460Z,32.15
2023-01-19T05:30:10.143Z,21.63
2023-01-19T05:32:36.820Z,37.63
2023-01-19T05:35:03.699Z,42.70
2023-01-19T05:37:32.664Z,26.70
2023-01-19T05:39:59.354Z,25.67
2023-01-19T05:42:26.003Z,31.20
2023-01-19T05:44:52.897Z,29.90
2023-01-19T05:47:19.630Z,32.65
2023-01-19T05:49:46.235Z,28.85
2023-01-19T05:52:12.892Z,31.15
2023-01-19T05:54:40.518Z,23.35
2023-01-19T05:57:07.836Z,28.02
2023-01-19T05:59:34.766Z,23.10
2023-01-19T06:02:01.565Z,23.33
2023-01-19T06:04:28.386Z,31.02
2023-01-19T06:06:55.181Z,29.13
2023-01-19T06:09:21.881Z,22.67
2023-01-19T06:11:49.060Z,26.90
2023-01-19T06:14:15.939Z,28.98
2023-01-19T06:16:42.700Z,25.55
2023-01-19T06:19:09.725Z,25.95
2023-01-19T06:21:36.337Z,29.00
2023-01-19T06:24:03.616Z,26.95
2023-01-19T06:26:30.468Z,32.05
2023-01-19T06:28:57.191Z,33.17
2023-01-19T06:31:23.968Z,29.40
2023-01-19T06:33:50.880Z,26.00
2023-01-19T06:36:17.617Z,26.77
2023-01-19T06:38:44.397Z,30.88
2023-01-19T06:41:11.298Z,23.67
2023-01-19T06:43:38.030Z,28.05
2023-01-19T06:46:04.991Z,31.15
2023-01-19T06:48:32.848Z,30.17
2023-01-19T06:51:00.029Z,27.20
2023-01-19T06:53:28.355Z,30.48
2023-01-19T06:55:59.728Z,22.55
2023-01-19T06:58:27.605Z,27.27
2023-01-19T07:00:54.773Z,25.58
2023-01-19T07:03:23.141Z,28.08
2023-01-19T07:05:53.673Z,22.90
2023-01-19T07:08:21.110Z,31.30
2023-01-19T07:11:22.167Z,29.15
2023-01-19T07:13:35.937Z,29.13
2023-01-19T07:16:11.621Z,29.13
2023-01-19T07:18:39.678Z,20.50
2023-01-19T07:21:07.135Z,26.00
2023-01-19T07:23:34.191Z,36.33
2023-01-19T07:26:01.912Z,30.48
2023-01-19T07:28:29.662Z,25.40
2023-01-19T07:30:56.472Z,23.02
2023-01-19T07:33:25.089Z,31.80
2023-01-19T07:35:52.344Z,28.83
2023-01-19T07:38:20.384Z,24.95
2023-01-19T07:40:47.513Z,25.30
2023-01-19T07:43:14.933Z,28.58
2023-01-19T07:45:42.047Z,25.10
2023-01-19T07:48:08.907Z,20.73
2023-01-19T07:50:35.587Z,22.85
2023-01-19T07:53:07.513Z,24.13
2023-01-19T07:55:34.589Z,16.80
2023-01-19T07:58:01.362Z,22.75
2023-01-19T08:00:28.119Z,21.80
2023-01-19T08:03:00.459Z,24.13
2023-01-19T08:05:29.266Z,19.55
2023-01-19T08:07:57.718Z,17.65
2023-01-19T08:10:26.784Z,21.38
2023-01-19T08:12:54.518Z,25.23
2023-01-19T08:15:24.106Z,24.80
2023-01-19T08:18:09.385Z,17.55
2023-01-19T08:20:36.900Z,17.48
2023-01-19T08:23:04.981Z,22.73
2023-01-19T08:25:42.378Z,21.23
2023-01-19T08:28:09.596Z,21.92
2023-01-19T08:30:36.777Z,20.08
2023-01-19T08:33:08.351Z,26.48
2023-01-19T08:35:38.329Z,15.35
2023-01-19T08:38:06.726Z,24.17
2023-01-19T08:40:37.943Z,15.25
2023-01-19T08:43:08.023Z,18.63
2023-01-19T08:45:41.646Z,24.38
2023-01-19T08:48:08.592Z,20.38
2023-01-19T08:50:35.379Z,19.02
2023-01-19T08:53:06.156Z,24.80
2023-01-19T08:55:35.852Z,19.48
2023-01-19T08:58:06.674Z,19.55
2023-01-19T09:00:34.396Z,23.20
2023-01-19T09:03:03.592Z,20.42
2023-01-19T09:05:39.000Z,24.80
2023-01-19T09:10:37.808Z,18.23
2023-01-19T09:13:05.786Z,19.73
2023-01-19T09:15:35.773Z,21.45
2023-01-19T09:18:04.690Z,21.75
2023-01-19T09:20:31.609Z,19.02
2023-01-19T09:22:58.939Z,17.77
2023-01-19T09:25:25.862Z,19.35
2023-01-19T09:27:53.101Z,19.08
2023-01-19T09:30:21.080Z,17.42
2023-01-19T09:32:47.775Z,20.02
2023-01-19T09:35:14.681Z,23.98
2023-01-19T09:37:45.536Z,9.25
2023-01-19T09:40:12.712Z,19.25
2023-01-19T09:42:45.082Z,15.88
2023-01-19T09:45:17.963Z,17.15
2023-01-19T09:47:47.035Z,17.98
2023-01-19T09:50:28.484Z,17.52
2023-01-19T09:53:01.496Z,14.77
2023-01-19T09:55:28.699Z,14.90
2023-01-19T09:57:55.497Z,18.55
2023-01-19T10:00:24.348Z,16.73
2023-01-19T10:03:00.785Z,15.27
2023-01-19T10:05:42.466Z,20.60
2023-01-19T10:08:27.637Z,14.48
2023-01-19T10:10:56.794Z,11.63
2023-01-19T10:13:48.952Z,18.50
2023-01-19T10:16:45.756Z,12.30
2023-01-19T10:19:27.349Z,20.35
2023-01-19T10:21:58.140Z,14.48
2023-01-19T10:24:33.349Z,11.57
2023-01-19T10:27:00.682Z,17.00
2023-01-19T10:29:38.851Z,15.48
2023-01-19T10:32:10.284Z,13.65
2023-01-19T10:34:37.262Z,10.57
2023-01-19T10:37:32.265Z,15.10
2023-01-19T10:40:10.908Z,19.58
2023-01-19T10:42:40.509Z,16.77
2023-01-19T10:45:19.075Z,15.93
2023-01-19T10:47:47.541Z,14.15
2023-01-19T10:50:27.821Z,20.25
2023-01-19T10:53:00.914Z,14.55
2023-01-19T10:55:34.895Z,17.73
2023-01-19T10:58:02.191Z,21.33
2023-01-19T11:00:31.889Z,19.70
2023-01-19T11:02:58.828Z,18.48
2023-01-19T11:05:31.746Z,16.65
2023-01-19T11:07:58.915Z,18.15
2023-01-19T11:10:28.541Z,13.68
2023-01-19T11:13:01.815Z,15.05
2023-01-19T11:15:49.433Z,14.32
2023-01-19T11:18:38.924Z,15.77
2023-01-19T11:21:09.458Z,18.17
2023-01-19T11:23:42.877Z,20.33
2023-01-19T11:26:16.448Z,20.02
2023-01-19T11:28:48.061Z,19.05
2023-01-19T11:31:14.848Z,15.95
2023-01-19T11:33:50.549Z,17.83
2023-01-19T11:36:36.463Z,12.50
2023-01-19T11:39:28.287Z,16.73
2023-01-19T11:42:06.432Z,11.98
2023-01-19T11:44:36.723Z,8.75
2023-01-19T11:47:12.464Z,9.70
2023-01-19T11:49:43.988Z,15.45
2023-01-19T11:52:33.973Z,10.15
2023-01-19T11:55:14.957Z,14.48
2023-01-19T11:57:51.130Z,16.15
2023-01-19T12:00:34.223Z,15.57
2023-01-19T12:03:17.940Z,13.77
2023-01-19T12:05:51.811Z,9.57
2023-01-19T12:08:27.152Z,12.93
2023-01-19T12:10:57.596Z,10.35
2023-01-19T12:13:26.624Z,9.13
2023-01-19T12:16:05.995Z,20.98
2023-01-19T12:18:38.933Z,13.82
2023-01-19T12:21:05.799Z,8.55
2023-01-19T12:23:47.475Z,10.48
2023-01-19T12:26:16.885Z,9.38
2023-01-19T12:28:47.490Z,6.55
2023-01-19T12:31:20.118Z,11.30
2023-01-19T12:33:47.487Z,11.65
2023-01-19T12:36:17.554Z,8.77
2023-01-19T12:38:55.293Z,11.95
2023-01-19T12:41:39.886Z,14.73
2023-01-19T12:44:14.008Z,11.43
2023-01-19T12:46:43.854Z,13.80
2023-01-19T12:49:34.205Z,7.97
2023-01-19T12:52:29.115Z,12.07
2023-01-19T12:54:58.708Z,12.50
2023-01-19T12:57:46.768Z,8.30
2023-01-19T13:00:22.512Z,10.80
2023-01-19T13:03:26.833Z,8.63
2023-01-19T13:05:55.419Z,15.98
2023-01-19T13:08:27.442Z,12.02
2023-01-19T13:11:00.300Z,38.08
2023-01-19T13:13:36.801Z,14.70
2023-01-19T13:16:19.014Z,13.27
2023-01-19T13:18:53.678Z,14.38
2023-01-19T13:21:29.615Z,19.27
2023-01-19T13:23:58.841Z,14.43
2023-01-19T13:26:38.804Z,23.23
2023-01-19T13:29:07.938Z,10.45
2023-01-19T13:31:36.789Z,10.05
2023-01-19T13:34:05.523Z,10.55
2023-01-19T13:36:37.639Z,8.15
2023-01-19T13:39:07.838Z,9.93
2023-01-19T13:41:40.615Z,8.57
2023-01-19T13:44:52.377Z,11.00
2023-01-19T13:47:25.399Z,8.98
2023-01-19T13:49:58.108Z,10.65
2023-01-19T13:52:27.550Z,15.00
2023-01-19T13:54:56.540Z,12.20
2023-01-19T13:57:43.630Z,13.02
2023-01-19T14:00:14.343Z,10.57
2023-01-19T14:02:50.533Z,15.05
2023-01-19T14:05:35.090Z,39.40
2023-01-19T14:08:13.860Z,19.52
2023-01-19T14:10:42.110Z,14.40
2023-01-19T14:13:35.506Z,89.93
2023-01-19T14:16:08.638Z,32.80
2023-01-19T14:18:36.568Z,32.67
2023-01-19T14:21:13.605Z,14.88
2023-01-19T14:23:47.397Z,22.45
2023-01-19T14:26:48.376Z,12.82
2023-01-19T14:29:32.886Z,8.80
2023-01-19T14:32:13.953Z,14.52
2023-01-19T14:35:05.113Z,12.98
2023-01-19T14:37:37.403Z,11.68
2023-01-19T14:40:18.751Z,16.77
2023-01-19T14:42:50.872Z,11.40
2023-01-19T14:45:40.714Z,14.40
2023-01-19T14:48:22.245Z,18.00
2023-01-19T14:51:02.962Z,12.77
2023-01-19T14:53:37.250Z,48.10
2023-01-19T14:56:05.881Z,18.45
2023-01-19T14:58:35.309Z,10.82
2023-01-19T15:01:03.060Z,12.07
2023-01-19T15:03:44.878Z,15.05
2023-01-19T15:06:31.744Z,35.03
2023-01-19T15:08:58.633Z,29.45
2023-01-19T15:11:32.918Z,33.65
2023-01-19T15:14:01.101Z,39.28
2023-01-19T15:16:29.954Z,23.30
2023-01-19T15:18:56.687Z,26.58
2023-01-19T15:21:26.506Z,23.77
2023-01-19T15:23:54.719Z,26.13
2023-01-19T15:26:26.350Z,25.60
2023-01-19T15:28:53.490Z,28.48
2023-01-19T15:31:22.763Z,17.83
2023-01-19T15:33:49.868Z,25.58
2023-01-19T15:36:19.728Z,27.58
2023-01-19T15:38:47.237Z,111.60
2023-01-19T15:41:18.235Z,77.75
2023-01-19T15:43:44.960Z,43.88
2023-01-19T15:46:15.574Z,57.67
2023-01-19T15:48:42.568Z,90.30
2023-01-19T15:51:13.963Z,39.85
2023-01-19T15:53:41.617Z,39.22
2023-01-19T15:56:21.141Z,70.53
2023-01-19T15:58:47.973Z,23.65
2023-01-19T16:01:22.737Z,22.02
2023-01-19T16:03:50.546Z,29.20
2023-01-19T16:06:18.232Z,35.13
2023-01-19T16:08:45.366Z,35.38
2023-01-19T16:11:15.030Z,38.25
2023-01-19T16:13:45.804Z,49.42
2023-01-19T16:16:18.205Z,61.83
2023-01-19T16:18:45.933Z,53.60
2023-01-19T16:21:12.645Z,69.30
2023-01-19T16:23:39.341Z,19.17
2023-01-19T16:26:22.115Z,12.02
2023-01-19T16:28:49.102Z,19.27
2023-01-19T16:31:16.761Z,45.78
2023-01-19T16:33:45.040Z,61.97
2023-01-19T16:36:29.906Z,57.88
2023-01-19T16:39:08.139Z,58.13
2023-01-19T16:41:35.469Z,62.05
2023-01-19T16:44:02.529Z,72.45
2023-01-19T16:46:33.977Z,74.00
2023-01-19T16:49:22.392Z,49.72
2023-01-19T16:51:49.269Z,38.17
2023-01-19T16:54:26.223Z,52.05
2023-01-19T16:56:54.678Z,73.00
2023-01-19T16:59:22.449Z,78.85
2023-01-19T17:01:51.094Z,70.55
2023-01-19T17:04:19.840Z,72.70
2023-01-19T17:06:46.841Z,61.35
2023-01-19T17:09:13.994Z,58.88
2023-01-19T17:11:41.169Z,68.50
2023-01-19T17:14:12.334Z,43.53
2023-01-19T17:16:39.058Z,70.93
2023-01-19T17:19:07.600Z,66.13
2023-01-19T17:21:35.560Z,74.80
2023-01-19T17:24:02.271Z,81.78
2023-01-19T17:26:31.163Z,84.40
2023-01-19T17:28:59.813Z,49.15
2023-01-19T17:31:26.966Z,46.50
2023-01-19T17:33:53.853Z,49.17
2023-01-19T17:36:22.891Z,55.72
2023-01-19T17:38:50.321Z,36.40
2023-01-19T17:41:28.608Z,89.47
2023-01-19T17:43:56.179Z,62.92
2023-01-19T17:46:25.265Z,71.32
2023-01-19T17:48:58.456Z,77.40
2023-01-19T17:51:26.132Z,66.13
2023-01-19T17:53:53.785Z,58.72
2023-01-19T17:56:22.838Z,46.95
2023-01-19T17:58:49.805Z,94.47
2023-01-19T18:01:18.906Z,59.22
2023-01-19T18:03:46.139Z,29.73
2023-01-19T18:06:13.647Z,44.38
2023-01-19T18:08:43.069Z,43.78
2023-01-19T18:11:10.940Z,47.10
2023-01-19T18:13:38.867Z,35.15
2023-01-19T18:16:09.279Z,19.23
2023-01-19T18:18:36.592Z,26.08
2023-01-19T18:21:09.132Z,14.48
2023-01-19T18:23:36.762Z,19.55
2023-01-19T18:26:09.695Z,27.00
2023-01-19T18:28:37.110Z,19.45
2023-01-19T18:31:10.442Z,67.63
2023-01-19T18:33:38.909Z,16.23
2023-01-19T18:36:06.931Z,21.73
2023-01-19T18:38:34.955Z,19.30
2023-01-19T18:41:03.918Z,11.98
2023-01-19T18:43:31.057Z,17.50
2023-01-19T18:45:57.860Z,19.08
2023-01-19T18:48:25.021Z,14.15
2023-01-19T18:50:54.455Z,17.05
2023-01-19T18:53:22.083Z,13.07
2023-01-19T18:56:00.129Z,16.70
2023-01-19T18:58:29.830Z,45.58
2023-01-19T19:00:57.786Z,54.55
2023-01-19T19:03:24.931Z,19.42
2023-01-19T19:05:51.721Z,48.75
2023-01-19T19:08:20.748Z,45.08
2023-01-19T19:10:47.538Z,58.67
2023-01-19T19:13:16.195Z,74.78
2023-01-19T19:15:44.518Z,68.32
2023-01-19T19:18:13.962Z,59.92
2023-01-19T19:20:43.465Z,59.75
2023-01-19T19:23:11.746Z,59.58
2023-01-19T19:25:38.697Z,67.22
2023-01-19T19:28:05.584Z,79.28
2023-01-19T19:30:34.434Z,159.52
2023-01-19T19:33:01.507Z,79.60
2023-01-19T19:35:28.340Z,87.22
2023-01-19T19:37:57.743Z,77.30
2023-01-19T19:40:28.286Z,74.72
2023-01-19T19:42:58.331Z,73.15
2023-01-19T19:45:26.089Z,62.22
2023-01-19T19:47:52.798Z,74.63
2023-01-19T19:50:19.493Z,78.10
2023-01-19T19:52:46.516Z,76.15
2023-01-19T19:55:13.409Z,94.85
2023-01-19T19:57:40.208Z,85.00
2023-01-19T20:00:08.310Z,83.53
2023-01-19T20:02:35.261Z,96.47
2023-01-19T20:05:01.971Z,91.28
2023-01-19T20:07:28.718Z,65.85
2023-01-19T20:09:55.456Z,78.82
2023-01-19T20:12:22.330Z,82.15
2023-01-19T20:14:49.337Z,75.13
2023-01-19T20:17:16.140Z,72.32
2023-01-19T20:19:43.946Z,22.20
2023-01-19T20:22:12.741Z,67.97
2023-01-19T20:24:39.525Z,50.60
2023-01-19T20:27:06.255Z,41.17
2023-01-19T20:29:32.911Z,53.80
2023-01-19T20:31:59.617Z,54.05
2023-01-19T20:34:32.166Z,26.17
2023-01-19T20:37:01.784Z,20.77
2023-01-19T20:39:30.224Z,12.80
2023-01-19T20:41:57.224Z,9.73
2023-01-19T20:44:25.737Z,17.00
2023-01-19T20:46:53.522Z,13.95
2023-01-19T20:49:20.790Z,9.65
2023-01-19T20:51:48.417Z,21.58
2023-01-19T20:54:17.164Z,21.70
2023-01-19T20:56:44.278Z,26.23
2023-01-19T20:59:12.276Z,30.13
2023-01-19T21:01:40.371Z,28.23
2023-01-19T21:04:07.379Z,29.40
2023-01-19T21:06:34.433Z,27.83
2023-01-19T21:09:01.584Z,28.08
2023-01-19T21:11:28.654Z,46.33
2023-01-19T21:13:58.454Z,36.85
2023-01-19T21:16:27.824Z,38.50
2023-01-19T21:18:55.236Z,24.60
2023-01-19T21:21:30.400Z,35.55
2023-01-19T21:24:02.007Z,32.05
2023-01-19T21:26:33.527Z,43.95
2023-01-19T21:29:01.484Z,35.70
2023-01-19T21:31:28.782Z,28.33
2023-01-19T21:33:56.908Z,30.17
2023-01-19T21:36:24.658Z,21.33
2023-01-19T21:38:52.506Z,23.05
2023-01-19T21:41:19.657Z,45.25
2023-01-19T21:43:46.808Z,46.08
2023-01-19T21:46:18.506Z,36.42
2023-01-19T21:48:46.049Z,18.80
2023-01-19T21:51:13.847Z,17.95
2023-01-19T21:53:43.421Z,15.82
2023-01-19T21:56:11.328Z,44.90
2023-01-19T21:58:38.273Z,45.55
2023-01-19T22:01:10.891Z,30.63
2023-01-19T22:03:37.947Z,23.25
2023-01-19T22:06:06.479Z,28.35
2023-01-19T22:08:33.960Z,19.80
2023-01-19T22:11:12.280Z,16.33
2023-01-19T22:13:40.130Z,9.95
2023-01-19T22:16:13.523Z,14.00
2023-01-19T22:18:42.276Z,16.88
2023-01-19T22:21:14.989Z,15.80
2023-01-19T22:23:42.446Z,13.55
2023-01-19T22:26:11.843Z,16.88
2023-01-19T22:28:39.087Z,8.60
2023-01-19T22:31:11.988Z,7.18
2023-01-19T22:33:39.246Z,8.73
2023-01-19T22:36:25.800Z,9.63
2023-01-19T22:38:56.843Z,4.68
2023-01-19T22:41:27.690Z,7.07
2023-01-19T22:43:57.069Z,10.98
2023-01-19T22:46:26.158Z,10.05
2023-01-19T22:48:53.503Z,5.85
2023-01-19T22:51:21.333Z,6.63
2023-01-19T22:53:48.518Z,8.32
2023-01-19T22:56:15.089Z,9.60
2023-01-19T22:58:44.333Z,7.68
2023-01-19T23:01:15.779Z,11.18
2023-01-19T23:03:43.109Z,9.90
2023-01-19T23:06:17.601Z,13.35
2023-01-19T23:08:44.259Z,7.13
2023-01-19T23:11:13.288Z,5.43
2023-01-19T23:13:40.496Z,7.45
2023-01-19T23:16:09.521Z,7.03
2023-01-19T23:18:36.580Z,8.35
2023-01-19T23:21:10.918Z,7.55
2023-01-19T23:23:38.520Z,11.02
2023-01-19T23:26:11.087Z,10.27
2023-01-19T23:28:39.284Z,6.45
2023-01-19T23:31:16.333Z,5.28
2023-01-19T23:33:44.445Z,18.48
2023-01-19T23:36:12.732Z,13.45
2023-01-19T23:38:39.960Z,9.73
2023-01-19T23:41:07.009Z,11.85
2023-01-19T23:43:33.770Z,6.97
2023-01-19T23:46:08.682Z,5.55
2023-01-19T23:48:36.050Z,7.50
2023-01-19T23:51:11.046Z,6.32
2023-01-19T23:56:11.866Z,6.82
2023-01-19T23:58:38.858Z,5.45
